createdAt,value
2023-05-05T00:00:47.132Z,-18573.91
2023-05-05T00:03:53.530Z,-18571.59
2023-05-05T00:06:56.243Z,-18568.84
2023-05-05T00:09:59.196Z,-18566.94
2023-05-05T00:13:01.803Z,-18565.56
2023-05-05T00:16:04.984Z,-18564.63
2023-05-05T00:19:07.610Z,-18563.94
2023-05-05T00:22:10.982Z,-18564.88
2023-05-05T00:25:13.590Z,-18564.22
2023-05-05T00:28:16.491Z,-18563.66
2023-05-05T00:31:19.219Z,-18563.38
2023-05-05T00:34:22.713Z,-18562.03
2023-05-05T00:37:25.289Z,-18560.25
2023-05-05T00:40:28.389Z,-18557.09
2023-05-05T00:43:31.324Z,-18554.38
2023-05-05T00:46:35.554Z,-18551.34
2023-05-05T00:49:39.508Z,-18549.03
2023-05-05T00:52:42.500Z,-18547.78
2023-05-05T00:55:45.030Z,-18545.47
2023-05-05T00:58:49.100Z,-18543.13
2023-05-05T01:01:52.070Z,-18540.81
2023-05-05T01:04:56.131Z,-18540.13
2023-05-05T01:08:36.040Z,-18540.00
2023-05-05T01:11:43.118Z,-18544.22
2023-05-05T01:14:53.181Z,-18541.91
2023-05-05T01:18:09.820Z,-18541.78
2023-05-05T01:21:19.187Z,-18540.53
2023-05-05T01:24:43.548Z,-18538.22
2023-05-05T01:28:20.639Z,-18536.84
2023-05-05T01:32:01.420Z,-18535.22
2023-05-05T01:35:13.685Z,-18533.44
2023-05-05T01:38:21.745Z,-18532.59
2023-05-05T01:41:29.830Z,-18530.81
2023-05-05T01:44:36.981Z,-18528.63
2023-05-05T01:47:40.991Z,-18528.91
2023-05-05T01:50:46.667Z,-18527.00
2023-05-05T01:53:52.581Z,-18526.72
2023-05-05T01:56:59.148Z,-18524.66
2023-05-05T02:00:04.070Z,-18526.59
2023-05-05T02:03:19.280Z,-18525.75
2023-05-05T02:06:24.155Z,-18527.41
2023-05-05T02:09:29.471Z,-18526.72
2023-05-05T02:12:35.235Z,-18525.06
2023-05-05T02:15:39.360Z,-18527.25
2023-05-05T02:18:43.142Z,-18525.50
2023-05-05T02:21:45.868Z,-18523.44
2023-05-05T02:24:50.989Z,-18523.44
2023-05-05T02:27:58.839Z,-18522.34
2023-05-05T02:31:05.725Z,-18520.28
2023-05-05T02:34:09.225Z,-18517.28
2023-05-05T02:37:18.061Z,-18514.81
2023-05-05T02:40:26.421Z,-18511.53
2023-05-05T02:43:33.102Z,-18510.84
2023-05-05T02:46:38.901Z,-18509.47
2023-05-05T02:49:42.983Z,-18511.12
2023-05-05T02:52:46.031Z,-18512.34
2023-05-05T02:56:02.155Z,-18510.16
2023-05-05T02:59:16.067Z,-18512.88
2023-05-05T03:02:33.994Z,-18509.59
2023-05-05T03:05:45.816Z,-18505.78
2023-05-05T03:09:23.951Z,-18505.91
2023-05-05T03:12:34.686Z,-18503.31
2023-05-05T03:15:44.623Z,-18499.88
2023-05-05T03:18:51.128Z,-18497.13
2023-05-05T03:21:54.686Z,-18495.63
2023-05-05T03:24:57.358Z,-18495.91
2023-05-05T03:28:00.485Z,-18495.75
2023-05-05T03:31:04.128Z,-18494.94
2023-05-05T03:34:08.338Z,-18492.75
2023-05-05T03:37:11.880Z,-18491.53
2023-05-05T03:40:15.455Z,-18491.78
2023-05-05T03:43:19.601Z,-18491.66
2023-05-05T03:46:23.047Z,-18491.38
2023-05-05T03:49:25.902Z,-18491.66
2023-05-05T03:52:29.186Z,-18490.97
2023-05-05T03:55:32.013Z,-18492.06
2023-05-05T03:58:34.975Z,-18493.84
2023-05-05T04:01:37.708Z,-18494.81
2023-05-05T04:04:41.028Z,-18496.59
2023-05-05T04:07:43.659Z,-18498.38
2023-05-05T04:10:46.773Z,-18501.78
2023-05-05T04:13:50.132Z,-18505.91
2023-05-05T04:16:53.406Z,-18506.31
2023-05-05T04:19:57.124Z,-18508.50
2023-05-05T04:23:00.209Z,-18510.00
2023-05-05T04:26:03.210Z,-18512.75
2023-05-05T04:29:06.798Z,-18514.53
2023-05-05T04:32:09.600Z,-18515.22
2023-05-05T04:35:13.026Z,-18515.50
2023-05-05T04:38:16.170Z,-18517.97
2023-05-05T04:41:19.664Z,-18518.50
2023-05-05T04:44:22.324Z,-18519.31
2023-05-05T04:47:25.513Z,-18523.03
2023-05-05T04:50:28.174Z,-18525.91
2023-05-05T04:53:31.952Z,-18527.81
2023-05-05T04:56:34.819Z,-18532.19
2023-05-05T04:59:37.744Z,-18531.91
2023-05-05T05:02:41.580Z,-18533.28
2023-05-05T05:05:44.777Z,-18534.38
2023-05-05T05:08:47.378Z,-18534.09
2023-05-05T05:11:50.447Z,-18537.81
2023-05-05T05:14:53.231Z,-18540.94
2023-05-05T05:17:56.188Z,-18544.50
2023-05-05T05:20:59.675Z,-18549.16
2023-05-05T05:24:02.903Z,-18555.72
2023-05-05T05:27:09.769Z,-18560.25
2023-05-05T05:30:13.636Z,-18568.84
2023-05-05T05:33:16.510Z,-18575.56
2023-05-05T05:36:19.814Z,-18575.28
2023-05-05T05:39:22.532Z,-18578.44
2023-05-05T05:42:26.281Z,-18585.13
2023-05-05T05:45:29.184Z,-18588.25
2023-05-05T05:48:32.395Z,-18591.00
2023-05-05T05:51:35.681Z,-18598.09
2023-05-05T05:54:38.642Z,-18602.34
2023-05-05T05:57:43.872Z,-18605.06
2023-05-05T06:00:48.970Z,-18612.03
2023-05-05T06:03:52.063Z,-18612.72
2023-05-05T06:06:56.135Z,-18616.41
2023-05-05T06:10:04.865Z,-18624.31
2023-05-05T06:13:14.376Z,-18624.19
2023-05-05T06:16:17.661Z,-18623.22
2023-05-05T06:19:21.489Z,-18627.31
2023-05-05T06:22:24.796Z,-18630.59
2023-05-05T06:25:27.763Z,-18630.44
2023-05-05T06:28:30.809Z,-18628.94
2023-05-05T06:31:33.431Z,-18633.19
2023-05-05T06:34:36.570Z,-18635.91
2023-05-05T06:37:39.569Z,-18640.69
2023-05-05T06:40:42.617Z,-18648.72
2023-05-05T06:43:45.262Z,-18652.81
2023-05-05T06:46:48.662Z,-18658.97
2023-05-05T06:49:51.208Z,-18666.88
2023-05-05T06:52:54.103Z,-18667.28
2023-05-05T06:55:56.799Z,-18669.44
2023-05-05T06:58:59.610Z,-18672.84
2023-05-05T07:02:02.790Z,-18675.84
2023-05-05T07:05:06.055Z,-18680.22
2023-05-05T07:08:09.128Z,-18689.75
2023-05-05T07:11:12.014Z,-18689.47
2023-05-05T07:14:14.886Z,-18690.44
2023-05-05T07:17:18.029Z,-18693.44
2023-05-05T07:20:20.786Z,-18693.28
2023-05-05T07:23:23.639Z,-18690.97
2023-05-05T07:26:26.612Z,-18695.47
2023-05-05T07:29:29.568Z,-18694.94
2023-05-05T07:32:32.674Z,-18697.50
2023-05-05T07:35:35.610Z,-18697.38
2023-05-05T07:38:38.303Z,-18700.78
2023-05-05T07:41:42.569Z,-18702.28
2023-05-05T07:44:45.442Z,-18702.81
2023-05-05T07:47:48.657Z,-18707.31
2023-05-05T07:50:52.549Z,-18711.53
2023-05-05T07:53:57.041Z,-18711.00
2023-05-05T07:56:59.867Z,-18716.44
2023-05-05T08:00:03.247Z,-18716.03
2023-05-05T08:03:24.525Z,-18718.19
2023-05-05T08:06:28.852Z,-18726.75
2023-05-05T08:09:31.505Z,-18733.03
2023-05-05T08:12:36.000Z,-18728.94
2023-05-05T08:15:38.878Z,-18732.47
2023-05-05T08:18:43.036Z,-18741.31
2023-05-05T08:21:45.634Z,-18739.81
2023-05-05T08:24:49.018Z,-18741.72
2023-05-05T08:27:54.944Z,-18739.81
2023-05-05T08:30:58.934Z,-18737.38
2023-05-05T08:34:02.623Z,-18739.00
2023-05-05T08:37:05.536Z,-18739.69
2023-05-05T08:40:11.179Z,-18744.72
2023-05-05T08:43:14.226Z,-18743.34
2023-05-05T08:46:17.312Z,-18744.44
2023-05-05T08:49:21.880Z,-18743.62
2023-05-05T08:52:28.886Z,-18742.53
2023-05-05T08:55:35.388Z,-18752.72
2023-05-05T08:58:38.697Z,-18753.69
2023-05-05T09:01:42.989Z,-18750.81
2023-05-05T09:04:46.220Z,-18747.97
2023-05-05T09:07:50.336Z,-18756.41
2023-05-05T09:10:54.404Z,-18751.78
2023-05-05T09:13:57.305Z,-18750.81
2023-05-05T09:17:00.313Z,-18754.63
2023-05-05T09:20:04.916Z,-18752.19
2023-05-05T09:23:15.504Z,-18757.63
2023-05-05T09:26:18.638Z,-18765.09
2023-05-05T09:29:22.704Z,-18754.50
2023-05-05T09:32:26.570Z,-18759.53
2023-05-05T09:35:48.658Z,-18762.66
2023-05-05T09:39:18.937Z,-18764.16
2023-05-05T09:42:21.664Z,-18766.44
2023-05-05T09:45:27.598Z,-18757.22
2023-05-05T09:48:31.926Z,-18766.59
2023-05-05T09:51:35.035Z,-18779.91
2023-05-05T09:54:37.594Z,-18785.59
2023-05-05T09:57:40.518Z,-18783.28
2023-05-05T10:00:43.212Z,-18781.66
2023-05-05T10:03:52.413Z,-18781.25
2023-05-05T10:06:58.926Z,-18786.00
2023-05-05T10:10:04.030Z,-18792.50
2023-05-05T10:13:06.874Z,-18795.78
2023-05-05T10:16:13.257Z,-18800.94
2023-05-05T10:19:28.596Z,-18796.03
2023-05-05T10:22:34.875Z,-18806.63
2023-05-05T10:25:46.594Z,-18796.84
2023-05-05T10:28:49.419Z,-18787.63
2023-05-05T10:31:54.242Z,-18797.13
2023-05-05T10:35:04.310Z,-18800.94
2023-05-05T10:38:12.688Z,-18811.38
2023-05-05T10:41:18.505Z,-18824.25
2023-05-05T10:44:23.203Z,-18821.66
2023-05-05T10:47:28.180Z,-18827.91
2023-05-05T10:50:34.620Z,-18826.69
2023-05-05T10:54:20.303Z,-18832.91
2023-05-05T10:57:27.102Z,-18822.06
2023-05-05T11:00:39.557Z,-18824.66
2023-05-05T11:03:42.406Z,-18831.97
2023-05-05T11:07:14.418Z,-18838.34
2023-05-05T11:10:20.646Z,-18845.38
2023-05-05T11:13:24.234Z,-18851.19
2023-05-05T11:16:47.832Z,-18850.81
2023-05-05T11:19:52.310Z,-18844.31
2023-05-05T11:23:03.850Z,-18841.31
2023-05-05T11:26:06.830Z,-18834.28
2023-05-05T11:29:09.511Z,-18827.91
2023-05-05T11:32:14.002Z,-18834.00
2023-05-05T11:35:16.661Z,-18829.66
2023-05-05T11:38:26.122Z,-18840.78
2023-05-05T11:41:34.264Z,-18853.38
2023-05-05T11:44:37.736Z,-18855.81
2023-05-05T11:47:40.440Z,-18861.34
2023-05-05T11:50:43.710Z,-18861.75
2023-05-05T11:53:48.374Z,-18869.19
2023-05-05T11:56:56.724Z,-18858.25
2023-05-05T12:00:04.132Z,-18861.50
2023-05-05T12:03:08.129Z,-18854.03
2023-05-05T12:06:11.211Z,-18850.81
2023-05-05T12:09:18.760Z,-18846.19
2023-05-05T12:12:22.208Z,-18849.03
2023-05-05T12:15:32.203Z,-18845.09
2023-05-05T12:18:35.363Z,-18854.84
2023-05-05T12:21:38.434Z,-18855.53
2023-05-05T12:24:41.754Z,-18864.88
2023-05-05T12:27:53.115Z,-18874.63
2023-05-05T12:31:00.122Z,-18878.25
2023-05-05T12:34:03.925Z,-18875.97
2023-05-05T12:37:06.994Z,-18867.16
2023-05-05T12:40:48.717Z,-18861.09
2023-05-05T12:43:58.428Z,-18859.88
2023-05-05T12:47:01.635Z,-18863.66
2023-05-05T12:50:04.957Z,-18869.47
2023-05-05T12:53:07.651Z,-18865.00
2023-05-05T12:56:38.534Z,-18877.31
2023-05-05T12:59:41.495Z,-18888.41
2023-05-05T13:02:44.546Z,-18883.69
2023-05-05T13:05:47.208Z,-18885.97
2023-05-05T13:08:50.745Z,-18890.97
2023-05-05T13:11:54.806Z,-18894.63
2023-05-05T13:14:57.692Z,-18890.03
2023-05-05T13:18:01.232Z,-18895.84
2023-05-05T13:21:04.445Z,-18895.69
2023-05-05T13:24:19.116Z,-18893.81
2023-05-05T13:27:26.327Z,-18890.97
2023-05-05T13:30:28.996Z,-18887.31
2023-05-05T13:33:35.347Z,-18891.09
2023-05-05T13:36:38.064Z,-18893.53
2023-05-05T13:39:41.002Z,-18892.72
2023-05-05T13:42:44.118Z,-18900.31
2023-05-05T13:45:47.397Z,-18912.47
2023-05-05T13:48:52.492Z,-18909.75
2023-05-05T13:51:59.300Z,-18905.69
2023-05-05T13:55:01.952Z,-18903.00
2023-05-05T13:58:04.891Z,-18902.19
2023-05-05T14:01:07.694Z,-18903.53
2023-05-05T14:04:10.795Z,-18910.16
2023-05-05T14:07:13.370Z,-18912.31
2023-05-05T14:10:16.419Z,-18912.72
2023-05-05T14:13:19.303Z,-18912.47
2023-05-05T14:16:22.254Z,-18912.72
2023-05-05T14:19:24.884Z,-18911.78
2023-05-05T14:22:27.769Z,-18908.28
2023-05-05T14:25:30.458Z,-18913.81
2023-05-05T14:28:33.421Z,-18917.44
2023-05-05T14:31:36.751Z,-18924.88
2023-05-05T14:34:39.784Z,-18932.72
2023-05-05T14:37:42.380Z,-18938.91
2023-05-05T14:40:45.364Z,-18945.38
2023-05-05T14:43:47.934Z,-18946.75
2023-05-05T14:46:51.249Z,-18945.78
2023-05-05T14:49:53.928Z,-18959.69
2023-05-05T14:52:56.831Z,-18971.00
2023-05-05T14:56:01.286Z,-18967.50
2023-05-05T14:59:04.093Z,-18978.13
2023-05-05T15:02:07.109Z,-19004.81
2023-05-05T15:05:10.492Z,-19010.84
2023-05-05T15:08:14.589Z,-19047.41
2023-05-05T15:11:17.531Z,-19096.38
2023-05-05T15:14:20.036Z,-19136.41
2023-05-05T15:17:22.965Z,-19136.94
2023-05-05T15:20:25.643Z,-19081.22
2023-05-05T15:23:28.560Z,-19104.81
2023-05-05T15:26:31.278Z,-19106.81
2023-05-05T15:29:34.612Z,-19118.59
2023-05-05T15:32:37.367Z,-19153.09
2023-05-05T15:35:40.280Z,-19166.59
2023-05-05T15:38:43.405Z,-19186.34
2023-05-05T15:41:46.882Z,-19207.41
2023-05-05T15:44:49.882Z,-19226.47
2023-05-05T15:47:54.027Z,-19198.63
2023-05-05T15:50:56.861Z,-19191.69
2023-05-05T15:54:00.355Z,-19176.47
2023-05-05T15:57:03.266Z,-19185.69
2023-05-05T16:00:16.516Z,-19192.63
2023-05-05T16:03:19.451Z,-19187.97
2023-05-05T16:06:22.188Z,-19188.22
2023-05-05T16:09:25.340Z,-19189.81
2023-05-05T16:12:27.885Z,-19186.63
2023-05-05T16:15:30.860Z,-19157.50
2023-05-05T16:18:33.580Z,-19109.75
2023-05-05T16:21:36.575Z,-19070.50
2023-05-05T16:24:39.467Z,-19034.78
2023-05-05T16:27:42.355Z,-19001.44
2023-05-05T16:30:44.965Z,-18976.78
2023-05-05T16:33:47.859Z,-18940.66
2023-05-05T16:36:50.430Z,-18921.91
2023-05-05T16:39:53.280Z,-18901.78
2023-05-05T16:42:55.909Z,-18899.50
2023-05-05T16:45:59.033Z,-18892.47
2023-05-05T16:49:01.591Z,-18880.03
2023-05-05T16:52:04.776Z,-18875.56
2023-05-05T16:55:07.961Z,-18862.97
2023-05-05T16:58:11.155Z,-18858.91
2023-05-05T17:01:13.887Z,-18852.41
2023-05-05T17:04:18.416Z,-18850.53
2023-05-05T17:07:21.441Z,-18845.25
2023-05-05T17:10:24.361Z,-18840.09
2023-05-05T17:13:26.919Z,-18833.72
2023-05-05T17:16:29.929Z,-18830.34
2023-05-05T17:19:32.617Z,-18823.56
2023-05-05T17:22:36.302Z,-18817.19
2023-05-05T17:25:38.930Z,-18811.50
2023-05-05T17:28:41.964Z,-18809.75
2023-05-05T17:31:44.625Z,-18804.72
2023-05-05T17:34:48.519Z,-18799.03
2023-05-05T17:37:53.301Z,-18793.47
2023-05-05T17:40:56.232Z,-18786.69
2023-05-05T17:43:59.620Z,-18781.66
2023-05-05T17:47:04.029Z,-18775.69
2023-05-05T17:50:07.302Z,-18771.63
2023-05-05T17:53:10.751Z,-18765.38
2023-05-05T17:56:13.521Z,-18760.19
2023-05-05T17:59:16.700Z,-18755.31
2023-05-05T18:02:19.719Z,-18750.97
2023-05-05T18:05:22.730Z,-18747.97
2023-05-05T18:08:25.629Z,-18743.91
2023-05-05T18:11:30.622Z,-18741.72
2023-05-05T18:14:33.579Z,-18740.09
2023-05-05T18:17:36.426Z,-18737.78
2023-05-05T18:20:39.187Z,-18734.38
2023-05-05T18:23:42.201Z,-18731.13
2023-05-05T18:26:48.865Z,-18730.03
2023-05-05T18:29:52.127Z,-18724.84
2023-05-05T18:32:54.750Z,-18720.50
2023-05-05T18:35:57.949Z,-18715.88
2023-05-05T18:39:00.714Z,-18712.06
2023-05-05T18:42:03.993Z,-18708.69
2023-05-05T18:45:07.892Z,-18705.41
2023-05-05T18:48:11.698Z,-18702.81
2023-05-05T18:51:14.351Z,-18700.38
2023-05-05T18:54:17.201Z,-18697.25
2023-05-05T18:57:19.790Z,-18696.16
2023-05-05T19:00:22.773Z,-18696.28
2023-05-05T19:03:25.802Z,-18693.28
2023-05-05T19:06:28.709Z,-18690.84
2023-05-05T19:09:31.391Z,-18687.97
2023-05-05T19:12:34.956Z,-18686.47
2023-05-05T19:15:38.121Z,-18686.75
2023-05-05T19:18:41.254Z,-18685.41
2023-05-05T19:21:44.093Z,-18683.09
2023-05-05T19:24:47.359Z,-18680.75
2023-05-05T19:27:50.004Z,-18679.41
2023-05-05T19:30:52.912Z,-18677.06
2023-05-05T19:34:03.506Z,-18675.84
2023-05-05T19:37:06.397Z,-18676.81
2023-05-05T19:40:09.599Z,-18673.94
2023-05-05T19:43:12.829Z,-18670.41
2023-05-05T19:46:15.775Z,-18666.19
2023-05-05T19:49:18.867Z,-18663.31
2023-05-05T19:52:22.724Z,-18660.19
2023-05-05T19:55:26.010Z,-18657.88
2023-05-05T19:58:29.079Z,-18655.41
2023-05-05T20:01:35.885Z,-18653.22
2023-05-05T20:04:38.870Z,-18650.78
2023-05-05T20:07:44.611Z,-18648.72
2023-05-05T20:10:47.654Z,-18647.38
2023-05-05T20:13:50.878Z,-18644.22
2023-05-05T20:16:53.876Z,-18642.19
2023-05-05T20:19:57.681Z,-18639.88
2023-05-05T20:23:00.806Z,-18637.53
2023-05-05T20:26:03.739Z,-18640.13
2023-05-05T20:29:06.906Z,-18640.81
2023-05-05T20:32:09.688Z,-18641.22
2023-05-05T20:35:13.058Z,-18638.22
2023-05-05T20:38:15.662Z,-18643.41
2023-05-05T20:41:18.570Z,-18637.41
2023-05-05T20:44:21.287Z,-18632.78
2023-05-05T20:47:24.284Z,-18628.69
2023-05-05T20:50:27.266Z,-18626.78
2023-05-05T20:53:30.369Z,-18625.28
2023-05-05T20:56:32.998Z,-18621.84
2023-05-05T20:59:36.011Z,-18618.84
2023-05-05T21:02:38.791Z,-18616.25
2023-05-05T21:05:41.991Z,-18614.75
2023-05-05T21:08:45.628Z,-18612.72
2023-05-05T21:11:48.968Z,-18610.25
2023-05-05T21:14:52.770Z,-18607.37
2023-05-05T21:17:57.067Z,-18605.75
2023-05-05T21:20:59.831Z,-18604.50
2023-05-05T21:24:03.399Z,-18601.91
2023-05-05T21:27:06.817Z,-18599.88
2023-05-05T21:30:11.449Z,-18599.47
2023-05-05T21:33:14.164Z,-18598.66
2023-05-05T21:36:19.181Z,-18597.16
2023-05-05T21:39:21.754Z,-18596.06
2023-05-05T21:42:24.671Z,-18594.81
2023-05-05T21:45:27.394Z,-18594.00
2023-05-05T21:48:33.486Z,-18593.03
2023-05-05T21:51:37.299Z,-18592.50
2023-05-05T21:54:40.847Z,-18591.53
2023-05-05T21:57:43.490Z,-18590.19
2023-05-05T22:00:49.507Z,-18589.09
2023-05-05T22:03:52.586Z,-18590.19
2023-05-05T22:06:55.372Z,-18588.81
2023-05-05T22:09:58.279Z,-18588.25
2023-05-05T22:13:00.935Z,-18586.91
2023-05-05T22:16:03.868Z,-18585.25
2023-05-05T22:19:06.862Z,-18583.63
2023-05-05T22:22:09.643Z,-18581.56
2023-05-05T22:25:12.373Z,-18579.78
2023-05-05T22:28:15.266Z,-18577.88
2023-05-05T22:31:18.072Z,-18580.06
2023-05-05T22:34:21.987Z,-18579.66
2023-05-05T22:37:24.845Z,-18577.59
2023-05-05T22:40:27.895Z,-18575.28
2023-05-05T22:43:30.785Z,-18573.50
2023-05-05T22:46:33.641Z,-18573.09
2023-05-05T22:49:36.265Z,-18575.16
2023-05-05T22:52:39.329Z,-18574.31
2023-05-05T22:55:41.925Z,-18572.97
2023-05-05T22:58:46.589Z,-18570.22
2023-05-05T23:01:49.386Z,-18569.13
2023-05-05T23:04:55.878Z,-18565.56
2023-05-05T23:08:01.154Z,-18564.75
2023-05-05T23:11:04.142Z,-18562.44
2023-05-05T23:14:06.772Z,-18561.75
2023-05-05T23:17:09.855Z,-18559.56
2023-05-05T23:20:13.248Z,-18558.19
2023-05-05T23:23:16.190Z,-18556.28
2023-05-05T23:26:18.866Z,-18556.53
2023-05-05T23:29:22.327Z,-18556.13
2023-05-05T23:32:25.093Z,-18557.09
2023-05-05T23:35:27.968Z,-18556.53
2023-05-05T23:38:30.562Z,-18554.22
2023-05-05T23:41:33.540Z,-18553.25
2023-05-05T23:44:36.700Z,-18552.16
2023-05-05T23:47:40.006Z,-18550.94
2023-05-05T23:50:42.987Z,-18549.97
2023-05-05T23:53:45.920Z,-18549.16
2023-05-05T23:56:48.677Z,-18547.78
2023-05-05T23:59:51.556Z,-18548.63
